Time;durP1;ratioP1;P1;durP2;ratioP2;P2;SDS_P1;SDS_P2;PMS_P1;PMS_P2;Temp;Humidity;BMP_temperature;BMP_pressure;BME280_temperature;BME280_humidity;BME280_pressure;Samples;Min_cycle;Max_cycle;Signal;HPM_P1;HPM_P2
2022/11/22 00:02:47;;;;;;;15.30;12.02;;;10.10;88.90;;;;;;11061715;32;20022;-73
2022/11/22 00:08:49;;;;;;;15.82;10.65;;;9.90;89.10;;;;;;11061549;32;20022;-73
2022/11/22 00:14:51;;;;;;;10.20;7.55;;;9.80;89.00;;;;;;11061140;32;20029;-74
2022/11/22 00:20:53;;;;;;;15.63;10.68;;;9.90;89.20;;;;;;11060936;32;20053;-73
2022/11/22 00:26:55;;;;;;;10.20;8.77;;;9.90;89.30;;;;;;11060034;32;20080;-73
2022/11/22 00:32:57;;;;;;;12.93;9.50;;;9.90;89.30;;;;;;11056352;32;20038;-73
2022/11/22 00:38:59;;;;;;;13.07;9.85;;;9.90;89.20;;;;;;11060240;32;20056;-74
2022/11/22 00:45:01;;;;;;;11.10;8.82;;;9.80;89.20;;;;;;11060012;32;20338;-73
2022/11/22 00:51:04;;;;;;;12.63;9.60;;;9.80;89.20;;;;;;11058964;32;20022;-74
2022/11/22 00:57:06;;;;;;;12.85;8.90;;;9.80;89.10;;;;;;11059750;32;20049;-73
2022/11/22 01:03:12;;;;;;;12.02;7.55;;;9.80;89.20;;;;;;11058630;32;20013;-73
2022/11/22 01:09:21;;;;;;;13.75;10.32;;;9.80;89.00;;;;;;11059255;32;20026;-73
2022/11/22 01:15:23;;;;;;;12.03;7.83;;;9.90;89.10;;;;;;11059066;32;20021;-73
2022/11/22 01:21:26;;;;;;;12.63;8.70;;;9.90;88.90;;;;;;11058922;32;20145;-73
2022/11/22 01:27:28;;;;;;;10.13;7.15;;;9.80;88.90;;;;;;11054215;32;20022;-73
2022/11/22 01:33:30;;;;;;;12.25;8.57;;;9.90;89.10;;;;;;11058283;32;20189;-73
2022/11/22 01:39:33;;;;;;;12.88;8.07;;;9.90;88.90;;;;;;11057993;32;20018;-73
2022/11/22 01:45:40;;;;;;;12.35;9.90;;;9.80;88.70;;;;;;11057818;32;20049;-73
2022/11/22 01:51:48;;;;;;;14.07;9.60;;;9.80;88.80;;;;;;11052746;32;20295;-73
2022/11/22 01:57:50;;;;;;;12.75;7.47;;;9.80;88.90;;;;;;11057424;32;20065;-73
2022/11/22 02:03:55;;;;;;;17.65;12.13;;;9.80;89.00;;;;;;11057290;32;20069;-73
2022/11/22 02:09:57;;;;;;;11.48;8.13;;;9.90;89.00;;;;;;11057019;32;20037;-73
2022/11/22 02:15:59;;;;;;;11.98;8.25;;;9.90;89.10;;;;;;11056959;32;20543;-73
2022/11/22 02:22:29;;;;;;;12.82;9.45;;;9.90;88.70;;;;;;11056771;32;20072;-74
2022/11/22 02:28:36;;;;;;;12.40;8.90;;;9.90;88.70;;;;;;11050522;32;20027;-74
2022/11/22 02:34:46;;;;;;;13.88;10.15;;;9.80;88.30;;;;;;11056475;32;20436;-73
2022/11/22 02:40:55;;;;;;;12.00;9.77;;;9.70;88.80;;;;;;11056328;32;20456;-74
2022/11/22 02:46:57;;;;;;;14.10;10.20;;;9.70;88.70;;;;;;11056014;32;20045;-74
2022/11/22 02:52:59;;;;;;;9.73;6.40;;;9.70;88.80;;;;;;11054588;32;20022;-75
2022/11/22 02:59:01;;;;;;;9.50;6.53;;;9.70;89.10;;;;;;11055896;32;20026;-74
2022/11/22 03:05:03;;;;;;;10.45;8.40;;;9.70;89.00;;;;;;11055960;32;20014;-75
2022/11/22 03:11:05;;;;;;;7.00;5.05;;;9.60;88.70;;;;;;11051375;32;20509;-73
2022/11/22 03:17:07;;;;;;;10.32;6.72;;;9.60;88.90;;;;;;11055534;32;20034;-73
2022/11/22 03:23:10;;;;;;;14.23;9.77;;;9.60;88.80;;;;;;11054511;32;20034;-74
2022/11/22 03:29:19;;;;;;;9.13;7.00;;;9.60;88.90;;;;;;11055335;32;20325;-73
2022/11/22 03:35:21;;;;;;;10.30;7.22;;;9.50;88.80;;;;;;11055246;32;20210;-73
2022/11/22 03:41:23;;;;;;;11.85;8.40;;;9.50;88.80;;;;;;11055329;32;20382;-72
2022/11/22 03:47:25;;;;;;;11.55;8.65;;;9.40;89.00;;;;;;11053368;32;20345;-73
2022/11/22 03:53:27;;;;;;;14.50;10.60;;;9.40;88.80;;;;;;11054801;32;20065;-73
2022/11/22 03:59:29;;;;;;;12.52;9.23;;;9.40;88.70;;;;;;11054801;32;20061;-73
2022/11/22 04:05:31;;;;;;;13.38;9.52;;;9.30;88.90;;;;;;11060468;32;20353;-75
2022/11/22 04:11:33;;;;;;;8.60;4.97;;;9.30;89.20;;;;;;11059128;32;20034;-74
2022/11/22 04:17:40;;;;;;;10.48;7.12;;;9.30;89.20;;;;;;11061356;32;20349;-74
2022/11/22 04:23:42;;;;;;;11.45;8.43;;;9.30;89.20;;;;;;11061026;32;20362;-74
2022/11/22 04:29:44;;;;;;;7.78;4.75;;;9.30;89.30;;;;;;11060703;32;20025;-74
2022/11/22 04:35:47;;;;;;;9.52;6.18;;;9.30;89.30;;;;;;11060546;32;20092;-74
2022/11/22 04:48:18;;;;;;;12.55;7.22;;;9.20;89.50;;;;;;11060378;32;20053;-75
2022/11/22 04:54:20;;;;;;;10.15;7.97;;;9.20;89.40;;;;;;11059911;32;20025;-74
2022/11/22 05:00:22;;;;;;;10.50;7.72;;;9.20;89.70;;;;;;11059760;32;20018;-74
2022/11/22 05:06:24;;;;;;;8.95;6.22;;;9.20;89.70;;;;;;11056610;32;20044;-74
2022/11/22 05:12:27;;;;;;;7.93;5.30;;;9.20;89.80;;;;;;11054449;32;20475;-75
2022/11/22 05:18:30;;;;;;;7.50;4.78;;;9.20;89.80;;;;;;11058913;32;20022;-73
2022/11/22 05:24:36;;;;;;;8.15;6.60;;;9.20;90.00;;;;;;11058737;32;20346;-74
2022/11/22 05:30:39;;;;;;;10.27;6.65;;;9.30;90.00;;;;;;11058420;32;20048;-74
2022/11/22 05:36:42;;;;;;;6.07;3.70;;;9.20;90.00;;;;;;11058312;32;20386;-76
2022/11/22 05:42:44;;;;;;;8.35;5.43;;;9.20;90.10;;;;;;11057642;32;20393;-79
2022/11/22 05:48:47;;;;;;;17.55;4.90;;;9.20;90.30;;;;;;11052767;32;20398;-77
2022/11/22 05:54:49;;;;;;;7.72;5.00;;;9.20;90.40;;;;;;11056297;32;20356;-76
2022/11/22 06:00:51;;;;;;;7.30;4.43;;;9.20;90.60;;;;;;11055172;32;20034;-76
2022/11/22 06:06:54;;;;;;;8.70;4.65;;;9.30;90.70;;;;;;11052752;32;20060;-77
2022/11/22 06:12:56;;;;;;;11.70;9.27;;;9.30;90.80;;;;;;11052699;32;20057;-78
2022/11/22 06:18:58;;;;;;;5.93;4.25;;;9.30;90.80;;;;;;11056951;32;20034;-76
2022/11/22 06:25:17;;;;;;;5.32;3.03;;;9.40;90.80;;;;;;11052177;32;20033;-77
2022/11/22 06:31:24;;;;;;;5.20;3.42;;;9.40;90.90;;;;;;11054462;32;20341;-77
2022/11/22 06:37:26;;;;;;;2.97;2.10;;;9.40;90.90;;;;;;11056489;32;20040;-77
2022/11/22 06:43:30;;;;;;;4.82;2.55;;;9.50;91.00;;;;;;11054980;32;20022;-76
2022/11/22 06:49:32;;;;;;;3.10;1.80;;;9.60;91.10;;;;;;10612710;26;12501732;-78
2022/11/22 06:55:34;;;;;;;2.60;2.03;;;9.60;91.00;;;;;;10974857;32;20131;-77
2022/11/22 07:01:37;;;;;;;2.33;1.73;;;9.60;91.30;;;;;;10974634;32;20084;-76
2022/11/22 07:07:39;;;;;;;4.05;1.60;;;9.70;91.30;;;;;;10971625;32;20035;-76
2022/11/22 07:13:43;;;;;;;4.53;1.90;;;9.70;91.40;;;;;;10992257;32;20027;-76
2022/11/22 07:19:45;;;;;;;2.65;1.35;;;9.70;91.40;;;;;;11015505;32;20243;-77
2022/11/22 07:25:47;;;;;;;3.87;2.33;;;9.70;91.40;;;;;;11017524;32;20053;-77
2022/11/22 07:31:49;;;;;;;2.45;1.50;;;9.80;91.40;;;;;;11017142;32;20039;-78
2022/11/22 07:37:57;;;;;;;4.07;2.30;;;9.80;91.40;;;;;;11017888;32;20014;-77
2022/11/22 07:43:59;;;;;;;4.50;2.35;;;9.80;91.30;;;;;;11021950;32;20394;-79
2022/11/22 07:50:01;;;;;;;11.27;1.62;;;9.80;91.40;;;;;;11025212;32;20015;-76
2022/11/22 07:56:05;;;;;;;4.22;1.67;;;9.80;91.40;;;;;;11024906;32;20041;-77
2022/11/22 08:02:11;;;;;;;4.70;1.87;;;9.80;90.90;;;;;;11021293;32;20390;-77
2022/11/22 08:08:47;;;;;;;3.28;1.52;;;9.80;91.10;;;;;;11022404;32;20019;-76
2022/11/22 08:14:49;;;;;;;4.15;2.15;;;9.80;91.20;;;;;;11023354;32;20022;-78
2022/11/22 08:21:00;;;;;;;3.12;2.10;;;9.80;91.30;;;;;;11001407;32;20034;-77
2022/11/22 08:27:02;;;;;;;4.22;1.77;;;9.90;91.40;;;;;;10991562;32;20026;-77
2022/11/22 08:33:05;;;;;;;3.55;2.47;;;9.90;91.50;;;;;;10984913;32;20022;-79
2022/11/22 08:39:07;;;;;;;4.50;2.50;;;10.00;91.50;;;;;;10985018;32;20334;-78
2022/11/22 08:45:09;;;;;;;3.55;2.37;;;10.00;91.50;;;;;;10983976;32;20311;-75
2022/11/22 08:51:13;;;;;;;4.10;2.53;;;10.00;91.80;;;;;;10981346;32;20031;-75
2022/11/22 08:57:16;;;;;;;2.03;1.33;;;10.00;91.70;;;;;;10981754;32;20023;-77
2022/11/22 09:03:18;;;;;;;3.80;2.40;;;10.00;91.80;;;;;;10984070;32;20057;-77
2022/11/22 09:09:21;;;;;;;7.35;2.33;;;10.00;91.50;;;;;;10983517;32;20286;-77
2022/11/22 09:15:23;;;;;;;4.68;1.70;;;10.00;91.80;;;;;;10982210;32;20206;-72
2022/11/22 09:21:25;;;;;;;6.47;2.65;;;10.00;91.70;;;;;;10982979;32;20027;-76
2022/11/22 09:27:28;;;;;;;2.03;1.30;;;10.00;91.40;;;;;;10980352;32;20019;-74
2022/11/22 09:33:32;;;;;;;8.57;1.80;;;9.90;91.90;;;;;;10982564;32;20030;-75
2022/11/22 09:39:34;;;;;;;4.37;1.80;;;10.00;91.80;;;;;;10980192;32;20092;-74
2022/11/22 09:45:44;;;;;;;4.10;2.33;;;10.00;91.50;;;;;;10981839;32;20084;-76
2022/11/22 09:52:09;;;;;;;5.10;2.30;;;10.00;91.50;;;;;;10978344;32;20084;-74
2022/11/22 09:58:20;;;;;;;2.53;1.48;;;10.00;91.80;;;;;;10979875;32;20048;-75
2022/11/22 10:04:32;;;;;;;5.18;2.62;;;10.00;91.60;;;;;;10981105;32;20023;-74
2022/11/22 10:10:41;;;;;;;6.50;4.03;;;10.00;91.80;;;;;;10980677;32;20425;-76
2022/11/22 10:17:18;;;;;;;3.73;1.73;;;10.00;91.60;;;;;;10980709;32;20371;-74
2022/11/22 10:23:23;;;;;;;6.12;1.77;;;10.00;91.40;;;;;;10975012;32;20022;-75
2022/11/22 10:29:35;;;;;;;5.47;2.28;;;10.00;91.50;;;;;;10980735;32;20429;-76
2022/11/22 10:35:53;;;;;;;2.30;1.65;;;10.00;91.60;;;;;;10990619;32;20061;-75
2022/11/22 10:42:25;;;;;;;2.92;1.45;;;10.00;91.50;;;;;;10978884;32;20049;-75
2022/11/22 10:48:38;;;;;;;6.20;1.67;;;10.10;91.50;;;;;;10979688;32;20053;-74
2022/11/22 10:55:03;;;;;;;3.60;1.37;;;10.00;91.30;;;;;;10991349;32;20057;-74
2022/11/22 11:01:28;;;;;;;2.72;1.23;;;10.10;91.00;;;;;;10991047;32;20390;-75
2022/11/22 11:07:31;;;;;;;1.65;1.12;;;10.00;91.60;;;;;;10979403;32;20030;-74
2022/11/22 11:13:40;;;;;;;2.47;1.80;;;10.00;91.60;;;;;;10984489;32;20027;-75
2022/11/22 11:19:46;;;;;;;4.60;1.40;;;10.00;91.30;;;;;;10986346;32;20057;-74
2022/11/22 11:25:49;;;;;;;1.42;0.98;;;10.00;91.00;;;;;;10986621;32;20068;-75
2022/11/22 11:32:18;;;;;;;1.50;1.12;;;9.90;90.80;;;;;;10986400;32;20034;-75
2022/11/22 11:38:47;;;;;;;4.53;1.37;;;9.90;90.90;;;;;;11022743;32;20038;-74
2022/11/22 11:44:50;;;;;;;3.78;1.50;;;9.90;90.70;;;;;;11023998;32;20053;-74
2022/11/22 11:51:06;;;;;;;0.82;0.80;;;9.90;90.70;;;;;;11023871;32;20023;-74
2022/11/22 11:57:36;;;;;;;2.05;1.12;;;9.90;91.10;;;;;;11023615;32;20057;-74
2022/11/22 12:03:38;;;;;;;4.22;1.37;;;9.90;91.00;;;;;;11023490;32;20030;-74
2022/11/22 12:09:46;;;;;;;2.20;1.05;;;9.90;90.60;;;;;;11023321;32;20045;-76
2022/11/22 12:15:56;;;;;;;1.27;0.77;;;9.90;90.70;;;;;;11022709;32;20030;-78
2022/11/22 12:22:04;;;;;;;1.33;0.75;;;9.80;90.90;;;;;;11021781;32;20031;-79
2022/11/22 12:28:23;;;;;;;1.40;0.57;;;9.80;90.50;;;;;;11022816;32;20080;-77
2022/11/22 12:34:37;;;;;;;1.47;1.00;;;9.80;90.80;;;;;;11019232;32;20122;-75
2022/11/22 12:40:46;;;;;;;4.82;3.25;;;9.80;90.70;;;;;;11023377;32;20330;-75
2022/11/22 12:46:55;;;;;;;3.05;1.67;;;9.80;91.00;;;;;;11023000;32;20044;-79
2022/11/22 12:53:12;;;;;;;1.62;0.80;;;9.80;91.40;;;;;;11022283;32;20062;-78
2022/11/22 13:00:03;;;;;;;0.95;0.60;;;9.90;91.30;;;;;;11021843;32;20034;-78
2022/11/22 13:06:09;;;;;;;2.05;1.25;;;9.90;90.90;;;;;;10817075;33;20419;-77
2022/11/22 13:12:19;;;;;;;2.60;1.25;;;9.90;90.90;;;;;;10825980;32;20044;-79
2022/11/22 13:18:32;;;;;;;1.35;0.75;;;9.90;91.10;;;;;;10824689;32;20047;-76
2022/11/22 13:24:41;;;;;;;3.25;1.33;;;9.90;90.70;;;;;;10826547;32;20401;-77
2022/11/22 13:31:03;;;;;;;0.60;0.60;;;9.90;91.20;;;;;;10828554;32;20032;-76
2022/11/22 13:37:16;;;;;;;1.05;0.77;;;9.90;90.70;;;;;;10829504;32;20402;-77
2022/11/22 13:43:18;;;;;;;1.17;0.68;;;9.80;90.80;;;;;;11008677;32;20370;-73
2022/11/22 13:49:33;;;;;;;0.75;0.68;;;9.90;90.60;;;;;;11019770;32;20045;-73
2022/11/22 13:55:36;;;;;;;3.08;1.35;;;9.90;90.60;;;;;;11018714;32;20296;-74
2022/11/22 14:01:38;;;;;;;1.40;1.00;;;9.80;90.50;;;;;;11019563;32;20076;-75
2022/11/22 14:07:42;;;;;;;1.73;0.80;;;9.90;90.60;;;;;;11019767;32;20401;-73
2022/11/22 14:13:54;;;;;;;2.20;0.70;;;9.90;90.90;;;;;;11019509;32;20038;-74
2022/11/22 14:20:18;;;;;;;1.25;0.52;;;9.90;90.20;;;;;;11015540;32;20026;-74
2022/11/22 14:26:27;;;;;;;2.10;0.75;;;9.80;90.80;;;;;;11011122;32;20358;-74
2022/11/22 14:32:49;;;;;;;0.45;0.43;;;9.80;90.40;;;;;;11018908;32;20052;-74
2022/11/22 14:38:51;;;;;;;0.50;0.47;;;9.80;90.60;;;;;;11018906;32;20382;-76
2022/11/22 14:44:54;;;;;;;0.62;0.60;;;9.80;90.90;;;;;;11024228;26;20030;-76
2022/11/22 14:51:27;;;;;;;0.50;0.40;;;9.80;91.20;;;;;;11051493;32;20030;-76
2022/11/22 14:57:32;;;;;;;0.88;0.50;;;9.90;91.10;;;;;;11053527;32;20018;-74
2022/11/22 15:03:58;;;;;;;0.88;0.50;;;9.80;90.30;;;;;;11054921;32;20052;-74
2022/11/22 15:10:18;;;;;;;7.87;0.75;;;9.80;90.10;;;;;;11055554;32;20334;-74
2022/11/22 15:16:23;;;;;;;1.10;0.50;;;9.70;90.50;;;;;;11051162;32;20022;-74
2022/11/22 15:22:29;;;;;;;0.75;0.60;;;9.70;90.70;;;;;;11055479;32;20291;-74
2022/11/22 15:28:48;;;;;;;1.33;1.05;;;9.70;90.50;;;;;;11055588;32;20056;-76
2022/11/22 15:34:52;;;;;;;1.60;0.90;;;9.70;90.70;;;;;;11054565;32;20314;-76
2022/11/22 15:40:54;;;;;;;1.05;0.73;;;9.70;91.10;;;;;;11055285;32;20040;-73
2022/11/22 15:46:57;;;;;;;1.00;0.62;;;9.70;91.30;;;;;;11055179;32;20091;-74
2022/11/22 15:53:24;;;;;;;1.23;1.00;;;9.80;91.50;;;;;;11054858;32;20026;-74
2022/11/22 15:59:37;;;;;;;0.90;0.68;;;9.90;91.20;;;;;;11059484;32;20034;-75
2022/11/22 16:05:39;;;;;;;1.90;1.30;;;9.90;91.30;;;;;;11061869;32;20060;-74
2022/11/22 16:11:41;;;;;;;1.55;1.10;;;9.90;91.20;;;;;;11061137;32;20030;-74
2022/11/22 16:17:50;;;;;;;3.20;1.75;;;9.90;91.20;;;;;;11061327;32;20034;-76
2022/11/22 16:24:15;;;;;;;3.65;1.08;;;9.90;91.30;;;;;;11061210;32;20060;-75
2022/11/22 16:30:17;;;;;;;0.95;0.80;;;9.90;91.10;;;;;;11060954;32;20022;-75
2022/11/22 16:36:21;;;;;;;1.00;0.90;;;9.80;91.40;;;;;;11060621;32;20064;-74
2022/11/22 16:42:25;;;;;;;1.02;0.93;;;9.90;91.30;;;;;;11060466;32;20048;-75
2022/11/22 16:48:29;;;;;;;3.75;1.45;;;9.90;91.10;;;;;;11060123;32;20022;-75
2022/11/22 16:54:31;;;;;;;1.35;1.10;;;9.90;91.20;;;;;;11059006;32;20049;-76
2022/11/22 17:00:34;;;;;;;1.23;1.12;;;9.90;90.90;;;;;;11055554;32;20030;-75
2022/11/22 17:06:37;;;;;;;2.03;1.30;;;9.70;90.80;;;;;;11059778;32;20371;-78
2022/11/22 17:12:41;;;;;;;2.35;1.30;;;9.70;90.30;;;;;;11058033;32;20424;-77
2022/11/22 17:18:45;;;;;;;3.58;1.05;;;9.60;90.50;;;;;;11059207;32;20030;-77
2022/11/22 17:24:47;;;;;;;4.90;2.30;;;9.60;90.70;;;;;;11056924;32;20026;-77
2022/11/22 17:30:49;;;;;;;0.75;0.75;;;9.50;90.70;;;;;;11058541;32;20048;-77
2022/11/22 17:36:51;;;;;;;1.67;0.82;;;9.50;91.20;;;;;;11058610;32;20045;-75
2022/11/22 17:42:53;;;;;;;3.05;1.15;;;9.50;90.70;;;;;;11058334;32;20049;-75
2022/11/22 17:49:00;;;;;;;2.17;1.30;;;9.50;90.90;;;;;;11058221;32;20321;-76
2022/11/22 17:55:02;;;;;;;2.10;0.95;;;9.50;90.90;;;;;;11057898;32;20443;-73
2022/11/22 18:01:21;;;;;;;3.50;1.70;;;9.50;91.00;;;;;;11057613;32;20048;-75
2022/11/22 18:07:27;;;;;;;2.65;1.12;;;9.50;91.10;;;;;;11057786;32;20030;-75
2022/11/22 18:13:32;;;;;;;2.00;0.90;;;9.50;90.70;;;;;;11056380;32;20092;-73
2022/11/22 18:19:34;;;;;;;2.37;1.35;;;9.50;91.00;;;;;;11056793;32;20030;-74
2022/11/22 18:25:36;;;;;;;1.48;1.02;;;9.50;90.80;;;;;;11056417;32;20346;-74
2022/11/22 18:31:38;;;;;;;2.30;1.45;;;9.50;90.80;;;;;;11056678;32;20388;-74
2022/11/22 18:37:42;;;;;;;2.37;1.62;;;9.50;90.60;;;;;;11056533;32;20048;-75
2022/11/22 18:43:53;;;;;;;2.58;1.27;;;9.50;91.00;;;;;;11055454;32;20408;-75
2022/11/22 18:50:08;;;;;;;1.58;0.98;;;9.50;91.10;;;;;;11056186;32;20030;-75
2022/11/22 18:56:17;;;;;;;2.03;0.93;;;9.50;91.10;;;;;;11056327;32;20022;-75
2022/11/22 19:02:24;;;;;;;0.80;0.73;;;9.60;91.10;;;;;;11055971;32;20057;-75
2022/11/22 19:08:27;;;;;;;1.48;1.00;;;9.70;91.20;;;;;;11047162;32;20030;-75
2022/11/22 19:14:29;;;;;;;11.90;1.80;;;9.80;91.30;;;;;;11018002;32;20034;-75
2022/11/22 19:20:31;;;;;;;1.52;1.08;;;9.90;91.30;;;;;;11013209;32;20035;-75
2022/11/22 19:26:33;;;;;;;2.22;1.10;;;10.10;91.20;;;;;;11017888;32;20034;-75
2022/11/22 19:32:35;;;;;;;5.25;2.92;;;10.20;91.00;;;;;;11019605;32;20034;-75
2022/11/22 19:38:39;;;;;;;3.97;2.28;;;10.20;90.90;;;;;;11020146;32;20085;-75
2022/11/22 19:44:41;;;;;;;3.12;2.10;;;10.30;90.80;;;;;;11025663;32;20068;-74
2022/11/22 19:50:49;;;;;;;5.47;2.28;;;10.20;90.40;;;;;;11024001;32;20057;-74
2022/11/22 19:56:51;;;;;;;5.65;3.53;;;10.00;90.50;;;;;;11023760;32;20061;-75
2022/11/22 20:02:59;;;;;;;8.65;5.60;;;10.00;90.60;;;;;;11023527;32;20334;-74
2022/11/22 20:09:09;;;;;;;6.73;3.63;;;10.00;90.50;;;;;;11023539;32;20030;-74
2022/11/22 20:15:12;;;;;;;10.38;6.70;;;9.80;90.50;;;;;;11019584;32;20417;-74
2022/11/22 20:21:14;;;;;;;8.88;5.10;;;9.70;90.50;;;;;;11022967;32;20026;-74
2022/11/22 20:27:17;;;;;;;8.38;5.97;;;9.60;90.50;;;;;;11022606;32;20041;-74
2022/11/22 20:33:20;;;;;;;6.10;4.55;;;9.50;90.50;;;;;;11022412;32;20026;-74
2022/11/22 20:39:22;;;;;;;6.60;4.45;;;9.50;90.20;;;;;;11022356;32;20053;-74
2022/11/22 20:45:24;;;;;;;7.05;4.70;;;9.40;90.30;;;;;;11021247;32;20056;-74
2022/11/22 20:51:27;;;;;;;8.95;5.05;;;9.40;90.10;;;;;;11021835;32;20370;-75
2022/11/22 20:57:29;;;;;;;8.68;6.03;;;9.30;89.90;;;;;;11019540;32;20034;-75
2022/11/22 21:03:33;;;;;;;9.25;6.28;;;9.30;89.60;;;;;;11021427;32;20014;-74
2022/11/22 21:09:35;;;;;;;7.10;5.43;;;9.20;89.50;;;;;;11021337;32;20424;-74
2022/11/22 21:15:37;;;;;;;8.82;6.00;;;9.20;89.40;;;;;;11021032;32;20383;-75
2022/11/22 21:21:40;;;;;;;11.35;6.75;;;9.20;89.50;;;;;;11020745;32;20083;-75
2022/11/22 21:27:43;;;;;;;10.40;7.82;;;9.20;89.30;;;;;;11020580;32;20444;-75
2022/11/22 21:33:45;;;;;;;8.18;5.05;;;9.20;89.20;;;;;;11020395;32;20044;-75
2022/11/22 21:39:47;;;;;;;7.15;5.10;;;9.20;89.30;;;;;;11020183;32;20056;-75
2022/11/22 21:45:50;;;;;;;9.43;4.65;;;9.30;89.30;;;;;;11019900;32;20023;-74
2022/11/22 21:51:52;;;;;;;7.15;4.93;;;9.30;89.30;;;;;;11019574;32;20018;-75
2022/11/22 21:57:54;;;;;;;6.68;4.37;;;9.30;89.10;;;;;;11019313;32;20045;-75
2022/11/22 22:03:56;;;;;;;9.13;5.05;;;9.30;88.90;;;;;;11019275;32;20044;-75
2022/11/22 22:09:58;;;;;;;6.97;4.37;;;9.30;88.80;;;;;;11019000;32;20041;-74
2022/11/22 22:16:05;;;;;;;6.10;2.53;;;9.30;88.90;;;;;;11018772;32;20018;-74
2022/11/22 22:22:08;;;;;;;6.43;4.07;;;9.30;88.80;;;;;;11018793;32;20501;-74
2022/11/22 22:28:10;;;;;;;5.97;2.70;;;9.40;88.90;;;;;;11017596;32;20022;-74
2022/11/22 22:34:15;;;;;;;4.70;2.55;;;9.40;89.00;;;;;;11018246;32;20035;-74
2022/11/22 22:40:17;;;;;;;2.55;1.70;;;9.60;89.20;;;;;;11018250;32;20019;-74
2022/11/22 22:46:23;;;;;;;4.82;2.45;;;9.70;89.20;;;;;;11022622;26;20038;-75
2022/11/22 22:52:25;;;;;;;3.15;2.08;;;9.60;88.90;;;;;;11017637;32;20055;-75
2022/11/22 22:58:27;;;;;;;2.25;1.40;;;9.50;89.00;;;;;;11017761;32;20041;-75
2022/11/22 23:04:30;;;;;;;3.83;2.35;;;9.50;89.10;;;;;;11004048;32;20027;-75
2022/11/22 23:10:32;;;;;;;2.47;1.67;;;9.50;88.80;;;;;;11024290;32;20040;-74
2022/11/22 23:16:36;;;;;;;7.12;3.80;;;9.50;88.90;;;;;;11025334;32;20060;-74
2022/11/22 23:22:38;;;;;;;6.30;3.55;;;9.50;88.60;;;;;;11011480;32;20424;-74
2022/11/22 23:28:40;;;;;;;2.75;2.17;;;9.40;88.30;;;;;;11024089;32;20030;-76
2022/11/22 23:34:42;;;;;;;2.95;1.62;;;9.30;88.10;;;;;;11024626;32;20034;-76
2022/11/22 23:40:52;;;;;;;3.70;1.75;;;9.30;88.00;;;;;;11024478;32;20053;-76
2022/11/22 23:46:53;;;;;;;5.72;2.17;;;9.30;88.00;;;;;;11010699;32;20026;-77
2022/11/22 23:52:56;;;;;;;5.82;2.75;;;9.30;87.70;;;;;;11023930;32;20080;-74
2022/11/22 23:58:58;;;;;;;4.37;2.37;;;9.40;88.10;;;;;;11023863;32;20018;-74
